createdAt,value
2023-03-07T00:02:17.107Z,62.60
2023-03-07T00:04:47.211Z,62.74
2023-03-07T00:07:13.949Z,62.58
2023-03-07T00:09:40.678Z,62.80
2023-03-07T00:12:08.416Z,62.40
2023-03-07T00:14:35.054Z,62.18
2023-03-07T00:17:01.975Z,62.41
2023-03-07T00:19:28.475Z,62.42
2023-03-07T00:21:54.972Z,62.37
2023-03-07T00:24:21.538Z,62.96
2023-03-07T00:26:48.178Z,62.71
2023-03-07T00:29:14.672Z,62.94
2023-03-07T00:31:41.199Z,62.92
2023-03-07T00:34:07.735Z,62.21
2023-03-07T00:36:34.188Z,62.09
2023-03-07T00:39:00.676Z,62.37
2023-03-07T00:41:28.338Z,62.50
2023-03-07T00:43:55.891Z,62.09
2023-03-07T00:46:24.449Z,62.04
2023-03-07T00:48:51.358Z,61.49
2023-03-07T00:51:19.444Z,61.45
2023-03-07T00:53:45.950Z,61.47
2023-03-07T00:56:15.589Z,61.45
2023-03-07T00:58:42.364Z,61.32
2023-03-07T01:01:11.105Z,61.41
2023-03-07T01:03:37.687Z,61.50
2023-03-07T01:06:06.614Z,61.29
2023-03-07T01:08:33.493Z,61.19
2023-03-07T01:11:02.126Z,61.65
2023-03-07T01:13:28.658Z,61.96
2023-03-07T01:15:55.506Z,61.90
2023-03-07T01:18:22.243Z,61.74
2023-03-07T01:20:48.729Z,61.75
2023-03-07T01:23:15.240Z,62.15
2023-03-07T01:25:43.305Z,62.12
2023-03-07T01:28:13.895Z,62.09
2023-03-07T01:30:41.126Z,62.17
2023-03-07T01:33:09.152Z,62.37
2023-03-07T01:35:39.757Z,63.27
2023-03-07T01:38:06.928Z,63.89
2023-03-07T01:40:33.842Z,63.90
2023-03-07T01:43:23.374Z,63.37
2023-03-07T01:45:49.901Z,63.31
2023-03-07T01:48:17.031Z,63.63
2023-03-07T01:50:44.567Z,64.29
2023-03-07T01:53:11.662Z,64.70
2023-03-07T01:55:39.009Z,64.85
2023-03-07T01:58:15.076Z,64.53
2023-03-07T02:00:44.065Z,64.64
2023-03-07T02:03:10.455Z,64.96
2023-03-07T02:05:41.139Z,64.95
2023-03-07T02:08:10.664Z,65.30
2023-03-07T02:10:38.815Z,65.72
2023-03-07T02:13:05.451Z,66.83
2023-03-07T02:15:35.028Z,66.57
2023-03-07T02:18:02.395Z,66.54
2023-03-07T02:20:48.674Z,67.16
2023-03-07T02:23:49.823Z,67.89
2023-03-07T02:26:21.287Z,67.21
2023-03-07T02:28:48.694Z,68.33
2023-03-07T02:31:15.322Z,68.59
2023-03-07T02:33:41.907Z,67.95
2023-03-07T02:36:13.117Z,68.82
2023-03-07T02:38:42.919Z,69.33
2023-03-07T02:41:11.665Z,69.40
2023-03-07T02:43:38.335Z,68.45
2023-03-07T02:46:05.350Z,67.85
2023-03-07T02:48:31.843Z,67.07
2023-03-07T02:50:58.297Z,67.55
2023-03-07T02:53:25.071Z,67.33
2023-03-07T02:55:51.576Z,67.29
2023-03-07T02:58:18.073Z,68.50
2023-03-07T03:00:44.583Z,68.67
2023-03-07T03:03:12.063Z,69.36
2023-03-07T03:05:38.573Z,69.28
2023-03-07T03:08:05.458Z,68.20
2023-03-07T03:10:32.198Z,68.80
2023-03-07T03:12:58.689Z,69.37
2023-03-07T03:15:25.169Z,71.23
2023-03-07T03:17:53.854Z,69.68
2023-03-07T03:20:20.320Z,69.64
2023-03-07T03:22:46.862Z,70.09
2023-03-07T03:25:14.753Z,70.89
2023-03-07T03:27:41.898Z,71.42
2023-03-07T03:30:10.546Z,72.03
2023-03-07T03:32:38.158Z,72.01
2023-03-07T03:35:05.662Z,71.45
2023-03-07T03:37:32.904Z,71.97
2023-03-07T03:39:59.459Z,71.64
2023-03-07T03:42:26.019Z,70.69
2023-03-07T03:44:52.610Z,71.22
2023-03-07T03:47:19.070Z,70.87
2023-03-07T03:49:45.520Z,70.96
2023-03-07T03:52:12.117Z,72.34
2023-03-07T03:54:38.770Z,71.76
2023-03-07T03:57:05.281Z,72.00
2023-03-07T03:59:31.807Z,71.94
2023-03-07T04:01:58.441Z,71.11
2023-03-07T04:04:25.006Z,71.00
2023-03-07T04:06:51.456Z,70.79
2023-03-07T04:09:17.958Z,72.23
2023-03-07T04:11:44.452Z,72.28
2023-03-07T04:14:11.305Z,72.62
2023-03-07T04:16:37.838Z,71.40
2023-03-07T04:19:04.346Z,71.37
2023-03-07T04:21:30.889Z,71.60
2023-03-07T04:23:58.415Z,71.94
2023-03-07T04:26:25.048Z,73.02
2023-03-07T04:28:51.871Z,72.92
2023-03-07T04:31:24.670Z,72.18
2023-03-07T04:33:52.304Z,71.70
2023-03-07T04:36:19.524Z,72.43
2023-03-07T04:38:47.582Z,73.06
2023-03-07T04:41:16.255Z,72.07
2023-03-07T04:43:43.390Z,72.03
2023-03-07T04:46:11.297Z,71.71
2023-03-07T04:48:37.840Z,72.07
2023-03-07T04:51:05.213Z,72.02
2023-03-07T04:53:31.758Z,71.41
2023-03-07T04:56:04.911Z,71.80
2023-03-07T04:58:32.581Z,71.73
2023-03-07T05:01:01.165Z,70.99
2023-03-07T05:03:28.256Z,71.29
2023-03-07T05:05:55.238Z,69.97
2023-03-07T05:08:23.060Z,71.59
2023-03-07T05:10:49.617Z,71.75
2023-03-07T05:13:16.152Z,72.05
2023-03-07T05:15:42.865Z,72.25
2023-03-07T05:18:09.433Z,71.75
2023-03-07T05:20:36.181Z,71.79
2023-03-07T05:23:02.737Z,70.94
2023-03-07T05:25:29.306Z,71.57
2023-03-07T05:27:55.849Z,71.05
2023-03-07T05:30:22.384Z,71.12
2023-03-07T05:32:49.052Z,70.50
2023-03-07T05:35:16.180Z,71.04
2023-03-07T05:37:42.715Z,71.38
2023-03-07T05:40:10.606Z,71.13
2023-03-07T05:42:37.515Z,71.37
2023-03-07T05:45:05.715Z,70.59
2023-03-07T05:47:32.563Z,70.67
2023-03-07T05:49:59.261Z,70.55
2023-03-07T05:52:26.592Z,71.31
2023-03-07T05:54:53.101Z,70.80
2023-03-07T05:57:19.855Z,71.02
2023-03-07T05:59:46.407Z,71.69
2023-03-07T06:02:13.195Z,72.81
2023-03-07T06:04:39.704Z,72.32
2023-03-07T06:07:06.198Z,72.37
2023-03-07T06:09:32.706Z,72.17
2023-03-07T06:11:59.264Z,71.63
2023-03-07T06:14:28.676Z,71.58
2023-03-07T06:16:55.241Z,71.32
2023-03-07T06:19:22.048Z,71.67
2023-03-07T06:21:48.573Z,71.37
2023-03-07T06:24:15.098Z,71.74
2023-03-07T06:26:41.588Z,71.70
2023-03-07T06:29:08.047Z,71.41
2023-03-07T06:31:34.834Z,71.09
2023-03-07T06:34:01.417Z,70.56
2023-03-07T06:36:27.926Z,87.91
2023-03-07T06:38:54.616Z,90.50
2023-03-07T06:41:21.195Z,72.99
2023-03-07T06:43:52.238Z,69.66
2023-03-07T06:46:20.504Z,69.82
2023-03-07T06:48:47.113Z,69.38
2023-03-07T06:51:13.971Z,69.25
2023-03-07T06:53:41.278Z,70.21
2023-03-07T06:56:07.845Z,70.25
2023-03-07T06:58:34.531Z,70.88
2023-03-07T07:01:01.079Z,70.14
2023-03-07T07:03:27.627Z,70.33
2023-03-07T07:05:54.119Z,71.25
2023-03-07T07:08:20.712Z,71.16
2023-03-07T07:10:47.192Z,70.50
2023-03-07T07:13:13.831Z,69.61
2023-03-07T07:15:40.409Z,69.57
2023-03-07T07:18:06.903Z,68.64
2023-03-07T07:20:33.434Z,68.33
2023-03-07T07:23:00.114Z,68.97
2023-03-07T07:25:26.648Z,69.14
2023-03-07T07:27:53.143Z,69.43
2023-03-07T07:30:19.603Z,69.69
2023-03-07T07:32:46.188Z,69.19
2023-03-07T07:35:12.849Z,69.16
2023-03-07T07:37:40.327Z,68.60
2023-03-07T07:40:10.157Z,69.32
2023-03-07T07:42:36.690Z,68.39
2023-03-07T07:45:03.663Z,67.51
2023-03-07T07:47:30.186Z,67.26
2023-03-07T07:49:56.701Z,67.75
2023-03-07T07:52:23.162Z,67.78
2023-03-07T07:54:49.834Z,67.37
2023-03-07T07:57:16.340Z,67.27
2023-03-07T07:59:42.808Z,67.41
2023-03-07T08:02:13.787Z,66.99
2023-03-07T08:04:40.606Z,66.35
2023-03-07T08:07:07.976Z,64.60
2023-03-07T08:09:35.564Z,65.85
2023-03-07T08:12:02.220Z,65.81
2023-03-07T08:14:28.689Z,65.39
2023-03-07T08:16:55.218Z,64.85
2023-03-07T08:19:21.738Z,63.62
2023-03-07T08:21:48.257Z,63.35
2023-03-07T08:24:14.752Z,63.36
2023-03-07T08:26:41.232Z,62.29
2023-03-07T08:29:07.786Z,61.39
2023-03-07T08:31:34.340Z,62.56
2023-03-07T08:34:01.330Z,61.30
2023-03-07T08:36:27.860Z,61.50
2023-03-07T08:38:54.401Z,61.46
2023-03-07T08:41:23.067Z,59.77
2023-03-07T08:43:50.059Z,60.00
2023-03-07T08:46:17.124Z,60.02
2023-03-07T08:48:43.962Z,58.42
2023-03-07T08:51:15.030Z,58.36
2023-03-07T08:53:46.160Z,59.33
2023-03-07T08:56:15.376Z,58.34
2023-03-07T08:58:42.044Z,54.41
2023-03-07T09:01:09.125Z,54.01
2023-03-07T09:03:36.441Z,50.23
2023-03-07T09:06:04.162Z,48.82
2023-03-07T09:08:31.007Z,48.01
2023-03-07T09:11:03.247Z,44.35
2023-03-07T09:13:29.779Z,44.66
2023-03-07T09:15:56.289Z,41.96
2023-03-07T09:18:23.003Z,40.34
2023-03-07T09:20:49.513Z,40.15
2023-03-07T09:23:16.003Z,38.85
2023-03-07T09:25:44.439Z,38.18
2023-03-07T09:28:11.019Z,37.46
2023-03-07T09:30:37.838Z,38.78
2023-03-07T09:33:04.299Z,37.80
2023-03-07T09:35:30.971Z,39.52
2023-03-07T09:37:57.528Z,40.52
2023-03-07T09:40:27.101Z,40.67
2023-03-07T09:43:18.601Z,39.93
2023-03-07T09:46:07.973Z,41.21
2023-03-07T09:48:59.680Z,42.17
2023-03-07T09:51:26.977Z,42.48
2023-03-07T09:54:00.020Z,43.34
2023-03-07T09:56:43.274Z,43.85
2023-03-07T09:59:33.933Z,42.30
2023-03-07T10:02:32.988Z,39.81
2023-03-07T10:05:08.620Z,38.17
2023-03-07T10:07:36.049Z,36.61
2023-03-07T10:10:10.586Z,36.33
2023-03-07T10:13:01.567Z,35.46
2023-03-07T10:15:42.555Z,33.96
2023-03-07T10:18:15.052Z,35.62
2023-03-07T10:21:04.725Z,35.30
2023-03-07T10:24:01.932Z,34.36
2023-03-07T10:26:57.553Z,33.26
2023-03-07T10:29:27.524Z,33.48
2023-03-07T10:32:15.061Z,33.03
2023-03-07T10:34:41.766Z,35.31
2023-03-07T10:37:19.314Z,35.00
2023-03-07T10:39:53.022Z,35.93
2023-03-07T10:42:21.692Z,35.95
2023-03-07T10:44:50.039Z,35.16
2023-03-07T10:47:22.436Z,36.32
2023-03-07T10:49:51.280Z,36.54
2023-03-07T10:52:46.287Z,37.58
2023-03-07T10:55:43.437Z,37.42
2023-03-07T10:58:19.618Z,38.89
2023-03-07T11:01:03.149Z,36.38
2023-03-07T11:03:49.623Z,35.00
2023-03-07T11:07:02.392Z,33.21
2023-03-07T11:09:34.289Z,33.49
2023-03-07T11:12:13.523Z,32.97
2023-03-07T11:15:10.830Z,31.44
2023-03-07T11:17:49.836Z,31.52
2023-03-07T11:20:48.406Z,31.47
2023-03-07T11:23:14.884Z,30.69
2023-03-07T11:25:41.433Z,31.99
2023-03-07T11:28:37.178Z,31.62
2023-03-07T11:31:06.700Z,30.51
2023-03-07T11:33:59.641Z,30.83
2023-03-07T11:36:35.594Z,30.74
2023-03-07T11:39:21.591Z,31.45
2023-03-07T11:41:55.551Z,30.47
2023-03-07T11:44:34.823Z,31.42
2023-03-07T11:47:29.054Z,32.71
2023-03-07T11:50:15.028Z,34.04
2023-03-07T11:52:50.354Z,34.59
2023-03-07T11:55:38.095Z,34.13
2023-03-07T11:58:46.374Z,33.92
2023-03-07T12:01:34.517Z,33.66
2023-03-07T12:04:22.134Z,32.56
2023-03-07T12:07:20.080Z,34.00
2023-03-07T12:10:11.290Z,35.06
2023-03-07T12:12:46.899Z,34.19
2023-03-07T12:15:32.123Z,33.78
2023-03-07T12:18:08.949Z,35.35
2023-03-07T12:20:44.356Z,35.30
2023-03-07T12:23:36.233Z,36.41
2023-03-07T12:26:12.363Z,36.07
2023-03-07T12:29:13.144Z,34.20
2023-03-07T12:31:47.281Z,32.57
2023-03-07T12:34:28.537Z,32.21
2023-03-07T12:37:05.104Z,33.33
2023-03-07T12:39:49.197Z,33.63
2023-03-07T12:42:38.845Z,33.87
2023-03-07T12:45:16.412Z,34.08
2023-03-07T12:47:51.958Z,34.15
2023-03-07T12:50:46.001Z,34.23
2023-03-07T12:53:33.394Z,33.74
2023-03-07T12:56:22.143Z,33.25
2023-03-07T12:59:00.637Z,33.36
2023-03-07T13:01:31.860Z,33.72
2023-03-07T13:04:13.824Z,33.37
2023-03-07T13:06:42.215Z,33.81
2023-03-07T13:09:24.867Z,32.56
2023-03-07T13:12:09.905Z,32.75
2023-03-07T13:14:40.430Z,32.21
2023-03-07T13:17:11.883Z,31.62
2023-03-07T13:19:39.234Z,30.83
2023-03-07T13:22:14.865Z,32.23
2023-03-07T13:24:42.936Z,33.11
2023-03-07T13:27:15.330Z,32.41
2023-03-07T13:30:04.044Z,32.60
2023-03-07T13:32:51.935Z,33.31
2023-03-07T13:35:24.369Z,34.25
2023-03-07T13:38:06.202Z,34.24
2023-03-07T13:40:35.658Z,35.81
2023-03-07T13:43:04.212Z,36.02
2023-03-07T13:45:39.972Z,36.19
2023-03-07T13:48:36.004Z,37.88
2023-03-07T13:51:09.425Z,38.07
2023-03-07T13:53:46.245Z,38.14
2023-03-07T13:56:15.764Z,38.07
2023-03-07T13:59:04.019Z,38.86
2023-03-07T14:01:45.869Z,39.68
2023-03-07T14:04:39.538Z,40.08
2023-03-07T14:07:21.320Z,40.88
2023-03-07T14:09:53.569Z,42.74
2023-03-07T14:13:05.589Z,41.63
2023-03-07T14:16:03.293Z,41.97
2023-03-07T14:18:57.258Z,42.34
2023-03-07T14:21:26.124Z,42.08
2023-03-07T14:24:01.444Z,41.82
2023-03-07T14:26:33.457Z,41.90
2023-03-07T14:29:00.005Z,42.24
2023-03-07T14:31:36.677Z,43.02
2023-03-07T14:34:21.564Z,42.82
2023-03-07T14:37:01.055Z,43.54
2023-03-07T14:39:43.644Z,43.52
2023-03-07T14:42:40.174Z,43.92
2023-03-07T14:45:29.435Z,44.70
2023-03-07T14:48:19.509Z,44.10
2023-03-07T14:50:47.030Z,44.80
2023-03-07T14:53:19.784Z,44.76
2023-03-07T14:55:48.900Z,44.73
2023-03-07T14:58:25.702Z,44.82
2023-03-07T15:01:11.001Z,44.91
2023-03-07T15:03:45.835Z,44.59
2023-03-07T15:06:15.513Z,44.83
2023-03-07T15:08:42.117Z,44.07
2023-03-07T15:11:14.538Z,44.28
2023-03-07T15:13:48.213Z,44.51
2023-03-07T15:16:32.391Z,43.78
2023-03-07T15:19:19.256Z,43.94
2023-03-07T15:21:51.842Z,44.56
2023-03-07T15:24:31.046Z,44.04
2023-03-07T15:26:59.448Z,44.77
2023-03-07T15:29:29.816Z,45.27
2023-03-07T15:31:59.223Z,44.80
2023-03-07T15:34:30.571Z,44.78
2023-03-07T15:37:32.545Z,46.30
2023-03-07T15:40:02.028Z,45.32
2023-03-07T15:42:29.485Z,45.35
2023-03-07T15:45:00.181Z,45.02
2023-03-07T15:47:28.749Z,45.29
2023-03-07T15:50:04.339Z,45.68
2023-03-07T15:52:36.865Z,46.00
2023-03-07T15:55:16.666Z,46.38
2023-03-07T15:57:48.997Z,46.14
2023-03-07T16:00:27.850Z,44.87
2023-03-07T16:03:17.184Z,45.44
2023-03-07T16:05:43.991Z,46.65
2023-03-07T16:08:15.583Z,46.10
2023-03-07T16:11:01.176Z,46.24
2023-03-07T16:13:40.615Z,47.09
2023-03-07T16:16:13.465Z,47.57
2023-03-07T16:18:41.744Z,46.90
2023-03-07T16:21:13.054Z,47.60
2023-03-07T16:23:40.094Z,47.64
2023-03-07T16:26:07.654Z,48.04
2023-03-07T16:28:34.820Z,47.27
2023-03-07T16:31:01.411Z,47.42
2023-03-07T16:33:27.921Z,47.37
2023-03-07T16:35:54.601Z,48.18
2023-03-07T16:38:21.472Z,47.70
2023-03-07T16:40:48.083Z,48.32
2023-03-07T16:43:36.328Z,48.70
2023-03-07T16:46:05.986Z,48.32
2023-03-07T16:48:32.893Z,49.25
2023-03-07T16:50:59.458Z,48.91
2023-03-07T16:53:26.718Z,49.67
2023-03-07T16:55:55.953Z,49.45
2023-03-07T16:58:27.516Z,50.54
2023-03-07T17:00:54.355Z,49.81
2023-03-07T17:03:20.834Z,50.35
2023-03-07T17:05:47.334Z,50.10
2023-03-07T17:08:13.791Z,50.63
2023-03-07T17:10:42.559Z,50.81
2023-03-07T17:13:17.564Z,50.88
2023-03-07T17:15:45.481Z,50.43
2023-03-07T17:18:12.173Z,51.51
2023-03-07T17:20:38.840Z,51.41
2023-03-07T17:23:05.328Z,50.72
2023-03-07T17:25:31.977Z,51.71
2023-03-07T17:28:02.419Z,51.97
2023-03-07T17:30:30.702Z,52.47
2023-03-07T17:32:58.041Z,51.71
2023-03-07T17:35:24.570Z,51.50
2023-03-07T17:37:53.054Z,51.86
2023-03-07T17:40:21.325Z,51.60
2023-03-07T17:42:51.925Z,52.06
2023-03-07T17:45:18.828Z,51.61
2023-03-07T17:47:49.323Z,51.86
2023-03-07T17:50:15.875Z,52.01
2023-03-07T17:52:43.146Z,51.92
2023-03-07T17:55:10.348Z,52.57
2023-03-07T17:57:36.963Z,52.18
2023-03-07T18:00:09.276Z,52.14
2023-03-07T18:02:35.755Z,52.56
2023-03-07T18:05:02.223Z,52.62
2023-03-07T18:07:28.777Z,52.54
2023-03-07T18:10:07.135Z,51.29
2023-03-07T18:12:34.462Z,52.18
2023-03-07T18:15:00.956Z,52.17
2023-03-07T18:17:31.388Z,52.20
2023-03-07T18:20:10.924Z,51.71
2023-03-07T18:22:38.284Z,52.78
2023-03-07T18:25:07.228Z,53.23
2023-03-07T18:27:33.767Z,51.88
2023-03-07T18:30:00.286Z,52.08
2023-03-07T18:32:29.176Z,53.04
2023-03-07T18:34:55.886Z,51.56
2023-03-07T18:37:22.747Z,52.32
2023-03-07T18:39:49.186Z,51.66
2023-03-07T18:42:15.684Z,52.36
2023-03-07T18:44:42.250Z,52.30
2023-03-07T18:47:10.464Z,52.89
2023-03-07T18:49:38.486Z,53.17
2023-03-07T18:52:05.006Z,53.37
2023-03-07T18:54:31.689Z,53.34
2023-03-07T18:56:58.153Z,53.08
2023-03-07T18:59:24.607Z,52.73
2023-03-07T19:01:51.221Z,53.59
2023-03-07T19:04:18.229Z,53.08
2023-03-07T19:06:47.480Z,52.35
2023-03-07T19:09:16.346Z,53.14
2023-03-07T19:11:43.212Z,53.72
2023-03-07T19:14:10.031Z,53.23
2023-03-07T19:16:36.613Z,53.48
2023-03-07T19:19:03.872Z,52.89
2023-03-07T19:21:31.180Z,53.11
2023-03-07T19:23:59.403Z,53.14
2023-03-07T19:26:26.219Z,53.56
2023-03-07T19:28:54.835Z,53.18
2023-03-07T19:31:27.158Z,53.25
2023-03-07T19:33:54.108Z,53.48
2023-03-07T19:36:22.834Z,53.65
2023-03-07T19:38:50.932Z,53.12
2023-03-07T19:41:21.336Z,53.65
2023-03-07T19:43:48.164Z,54.09
2023-03-07T19:46:16.323Z,53.82
2023-03-07T19:48:44.170Z,54.23
2023-03-07T19:51:16.645Z,53.58
2023-03-07T19:53:44.249Z,53.77
2023-03-07T19:56:18.396Z,53.69
2023-03-07T19:58:44.959Z,54.35
2023-03-07T20:01:15.320Z,54.60
2023-03-07T20:03:42.237Z,54.90
2023-03-07T20:06:14.337Z,55.38
2023-03-07T20:08:41.008Z,55.23
2023-03-07T20:11:27.212Z,55.87
2023-03-07T20:13:55.965Z,55.95
2023-03-07T20:16:23.484Z,55.62
2023-03-07T20:18:51.781Z,55.93
2023-03-07T20:21:19.720Z,56.26
2023-03-07T20:23:48.325Z,56.52
2023-03-07T20:26:21.559Z,56.76
2023-03-07T20:28:48.655Z,57.63
2023-03-07T20:31:18.749Z,57.88
2023-03-07T20:33:46.811Z,57.81
2023-03-07T20:36:18.736Z,58.14
2023-03-07T20:38:50.175Z,57.91
2023-03-07T20:41:19.692Z,58.52
2023-03-07T20:43:47.854Z,57.85
2023-03-07T20:46:16.842Z,57.39
2023-03-07T20:48:44.558Z,57.55
2023-03-07T20:51:18.474Z,57.78
2023-03-07T20:53:46.358Z,57.75
2023-03-07T20:56:12.833Z,57.58
2023-03-07T20:58:39.633Z,58.05
2023-03-07T21:01:06.323Z,57.77
2023-03-07T21:03:33.892Z,58.27
2023-03-07T21:06:02.476Z,58.86
2023-03-07T21:08:30.875Z,58.70
2023-03-07T21:10:59.152Z,59.65
2023-03-07T21:13:26.145Z,59.20
2023-03-07T21:15:58.838Z,58.78
2023-03-07T21:18:26.195Z,58.08
2023-03-07T21:20:53.026Z,57.81
2023-03-07T21:23:19.547Z,58.30
2023-03-07T21:25:46.720Z,58.28
2023-03-07T21:28:13.726Z,58.59
2023-03-07T21:30:40.310Z,58.77
2023-03-07T21:33:07.036Z,58.51
2023-03-07T21:35:38.720Z,59.00
2023-03-07T21:38:05.893Z,58.86
2023-03-07T21:40:32.793Z,59.19
2023-03-07T21:42:59.330Z,59.63
2023-03-07T21:45:25.837Z,59.34
2023-03-07T21:47:54.271Z,60.29
2023-03-07T21:50:21.014Z,59.85
2023-03-07T21:52:47.598Z,60.10
2023-03-07T21:55:14.149Z,60.45
2023-03-07T21:57:40.678Z,60.44
2023-03-07T22:00:09.140Z,60.51
2023-03-07T22:02:38.489Z,60.54
2023-03-07T22:05:05.439Z,60.43
2023-03-07T22:07:32.019Z,60.53
2023-03-07T22:09:58.623Z,60.76
2023-03-07T22:12:25.131Z,60.50
2023-03-07T22:14:51.641Z,60.64
2023-03-07T22:17:18.213Z,60.39
2023-03-07T22:19:44.695Z,60.36
2023-03-07T22:22:11.268Z,60.78
2023-03-07T22:24:37.763Z,61.07
2023-03-07T22:27:04.341Z,60.71
2023-03-07T22:29:30.919Z,60.90
2023-03-07T22:31:57.434Z,60.93
2023-03-07T22:34:23.981Z,61.03
2023-03-07T22:36:51.302Z,60.51
2023-03-07T22:39:17.829Z,60.88
2023-03-07T22:41:44.287Z,60.17
2023-03-07T22:44:11.240Z,60.25
2023-03-07T22:46:37.847Z,61.04
2023-03-07T22:49:04.358Z,60.55
2023-03-07T22:51:30.846Z,60.95
2023-03-07T22:53:57.362Z,60.79
2023-03-07T22:56:26.788Z,60.69
2023-03-07T22:58:53.703Z,60.71
2023-03-07T23:01:22.466Z,60.86
2023-03-07T23:03:50.622Z,60.63
2023-03-07T23:06:18.105Z,60.55
2023-03-07T23:08:49.970Z,61.28
2023-03-07T23:11:18.081Z,61.64
2023-03-07T23:13:45.089Z,60.56
2023-03-07T23:16:14.889Z,60.95
2023-03-07T23:18:42.585Z,62.34
2023-03-07T23:21:15.224Z,61.69
2023-03-07T23:23:41.786Z,61.98
2023-03-07T23:26:08.341Z,62.35
2023-03-07T23:28:35.137Z,61.62
2023-03-07T23:31:01.698Z,62.50
2023-03-07T23:33:28.269Z,62.40
2023-03-07T23:35:59.201Z,62.79
2023-03-07T23:38:25.693Z,62.98
2023-03-07T23:40:52.257Z,62.81
2023-03-07T23:43:18.735Z,62.45
2023-03-07T23:45:45.178Z,62.13
2023-03-07T23:48:11.709Z,62.19
2023-03-07T23:50:38.231Z,62.09
2023-03-07T23:53:04.694Z,62.27
2023-03-07T23:55:31.213Z,62.10
2023-03-07T23:57:57.697Z,62.17
